Thursday, November 27, 2014
14:25 UTC
  |  Log In   |  Register Free
Airport Search:

Owosso Community Airport
(KRNP)

Owosso Community Airport Diagram
No Airport Diagram Available

FAA data valid effective November 13, 2014 - January 08, 2015 (unless otherwise noted).

 
 
 
 
 
 
 
 
 
 
 
 
 
 

Current Aviation Weather for Owosso Community Airport (KRNP)

The most recent METAR observation for KRNP was updated at: 1420
METAR Summary (Translated METAR)
KRNP
271354Z AUTO 30006KT 4SM -SN SCT018 SCT030 BKN043 M02/M04 A3014 RMK AO2 T10161040
K4M4
140000Z VRB05KT 25SM SKC 16/04
(13.4 nm NW from KRNP)
KFNT
271353Z 29010KT 9SM OVC036 M01/M04 A3014 RMK AO2 SLP217 T10061044
(17.4 nm SE from KRNP)
TAF Summary (Translated TAF)
KFNT
(17.4 nm SE from KRNP)
271134Z 2712/2812 29008KT P6SM OVC040 TEMPO 2716/2718 5SM -SHSN SCT028 OVC040 FM272100 32011G19KT P6SM BKN030 OVC045 FM280300 29008KT P6SM SCT050
  Airport Weather Conditions for KRNP

 Current Weather at RNP
29° F
Overcast
West winds at 5.8 mph
RNP NOAA Radar

Pressure: 30.13 in
Humidity: 81%
Wind: West at 5.8 MPH (5 KT)
Dew Point: 24.1°F
Visibility: 10.00 mi


Airport Weather Forecast for KRNP

Translated METAR and TAF for KRNP
Translated METAR for KRNP (1420 UTC 27 November 2014)
found at http://aviationweather.gov/adds/metars/
 
METAR text: KRNP 271414Z AUTO 29009KT 7SM -SN SCT012 SCT020 BKN041 M01/M04 A3015 RMK AO2 T10151039
Conditions at: KRNP (OWOSSO , MI, US) observed 1414 UTC 27 November 2014
Temperature: -1.5°C (29°F)
Dewpoint: -3.9°C (25°F) [RH = 84%]
Pressure (altimeter): 30.15 inches Hg (1021.1 mb)
Winds: from the WNW (290 degrees) at 10 MPH (9 knots; 4.7 m/s)
Visibility: 7 miles (11 km)
Ceiling: 4100 feet AGL
Clouds: scattered clouds at 1200 feet AGL
scattered clouds at 2000 feet AGL
broken clouds at 4100 feet AGL
Weather: -SN  (light snow)
Translated TAF for KRNP

There is no translated TAF available for this airport

Find All Airport Services Find A Hotel Find A Rental Car Find A Golf Course Find A Restaurant $100 Hamburger



FBO's on the Field
FBO Company Facility Photos Services Transportation Aviation Fuel Prices: Prices include tax
Catering Weather Repair Courtesy Rental Type 100LL JetA JetA+ MOGAS 8087
 
Owosso Community Airport

This FBO has not yet been rated
FS:Avfuel
Last Updated: Nov-12
Login to update fuel prices
SS:
Contact Owosso Community AirportMore FBO Information
 
Add another FBO Facility Photos Catering Weather Repair Courtesy Rental Type 100LL JetA JetA+ MOGAS 8087
Services Transportation Aviation Fuel Prices: Prices include tax


model-print
model-print
model-print
model-print